Terminal Aerodrome Forecast
Issued by NWS Buffalo, NY

Home | Current Version | Previous Version | Text Only | Print | Product List | Glossary On
Versions: 1 2 3 4 5 6 7 8 9 10 11 12 13 14 15 16 17 18 19 20 21 22 23 24
000
FTUS41 KBUF 211120
TAFBUF
TAF
KBUF 211120Z 2112/2212 VRB03KT P6SM FEW250
     FM211900 07004KT P6SM FEW250
     FM220300 10007KT P6SM VCSH OVC060
     FM220500 12007KT P6SM -SHRA OVC045
     FM220700 13008KT P6SM -SHRA OVC030
     FM221000 13008KT P6SM -SHRA OVC015=

USA.gov is the U.S. government's official web portal to all federal, state and local government web resources and services.